sensor_id;sensor_type;location;lat;lon;timestamp;P1;durP1;ratioP1;P2;durP2;ratioP2
22786;SDS011;63134;52.020;4.714;2023-04-03T00:00:15;3.78;;;2.20;;
22786;SDS011;63134;52.020;4.714;2023-04-03T00:03:01;10.25;;;2.25;;
22786;SDS011;63134;52.020;4.714;2023-04-03T00:05:46;6.30;;;2.47;;
22786;SDS011;63134;52.020;4.714;2023-04-03T00:08:32;6.80;;;2.97;;
22786;SDS011;63134;52.020;4.714;2023-04-03T00:11:21;7.13;;;2.30;;
22786;SDS011;63134;52.020;4.714;2023-04-03T00:14:07;6.55;;;2.40;;
22786;SDS011;63134;52.020;4.714;2023-04-03T00:16:53;6.00;;;2.30;;
22786;SDS011;63134;52.020;4.714;2023-04-03T00:19:38;2.92;;;1.98;;
22786;SDS011;63134;52.020;4.714;2023-04-03T00:22:24;5.75;;;2.10;;
22786;SDS011;63134;52.020;4.714;2023-04-03T00:25:11;5.65;;;2.25;;
22786;SDS011;63134;52.020;4.714;2023-04-03T00:27:57;3.35;;;1.80;;
22786;SDS011;63134;52.020;4.714;2023-04-03T00:30:43;5.07;;;2.35;;
22786;SDS011;63134;52.020;4.714;2023-04-03T00:33:29;4.90;;;2.25;;
22786;SDS011;63134;52.020;4.714;2023-04-03T00:36:14;2.90;;;1.70;;
22786;SDS011;63134;52.020;4.714;2023-04-03T00:39:00;9.35;;;2.13;;
22786;SDS011;63134;52.020;4.714;2023-04-03T00:41:45;5.32;;;2.30;;
22786;SDS011;63134;52.020;4.714;2023-04-03T00:47:24;3.65;;;2.30;;
22786;SDS011;63134;52.020;4.714;2023-04-03T00:50:10;5.15;;;2.40;;
22786;SDS011;63134;52.020;4.714;2023-04-03T00:52:56;3.50;;;1.83;;
22786;SDS011;63134;52.020;4.714;2023-04-03T00:55:42;7.63;;;2.00;;
22786;SDS011;63134;52.020;4.714;2023-04-03T00:58:37;7.57;;;2.17;;
22786;SDS011;63134;52.020;4.714;2023-04-03T01:01:27;5.90;;;2.47;;
22786;SDS011;63134;52.020;4.714;2023-04-03T01:04:33;2.05;;;1.75;;
22786;SDS011;63134;52.020;4.714;2023-04-03T01:07:24;4.30;;;2.20;;
22786;SDS011;63134;52.020;4.714;2023-04-03T01:10:14;7.45;;;2.22;;
22786;SDS011;63134;52.020;4.714;2023-04-03T01:13:01;7.53;;;2.15;;
22786;SDS011;63134;52.020;4.714;2023-04-03T01:15:46;4.57;;;3.30;;
22786;SDS011;63134;52.020;4.714;2023-04-03T01:18:32;6.85;;;2.58;;
22786;SDS011;63134;52.020;4.714;2023-04-03T01:21:30;3.70;;;1.90;;
22786;SDS011;63134;52.020;4.714;2023-04-03T01:27:10;2.83;;;1.92;;
22786;SDS011;63134;52.020;4.714;2023-04-03T01:29:57;3.83;;;2.20;;
22786;SDS011;63134;52.020;4.714;2023-04-03T01:32:43;6.80;;;2.15;;
22786;SDS011;63134;52.020;4.714;2023-04-03T01:35:30;4.72;;;2.30;;
22786;SDS011;63134;52.020;4.714;2023-04-03T01:38:15;3.67;;;2.58;;
22786;SDS011;63134;52.020;4.714;2023-04-03T01:41:01;2.40;;;2.15;;
22786;SDS011;63134;52.020;4.714;2023-04-03T01:43:47;5.25;;;2.20;;
22786;SDS011;63134;52.020;4.714;2023-04-03T01:46:34;5.47;;;2.35;;
22786;SDS011;63134;52.020;4.714;2023-04-03T01:49:22;5.88;;;2.70;;
22786;SDS011;63134;52.020;4.714;2023-04-03T01:52:08;5.43;;;2.58;;
22786;SDS011;63134;52.020;4.714;2023-04-03T01:54:54;5.72;;;2.60;;
22786;SDS011;63134;52.020;4.714;2023-04-03T01:57:39;5.70;;;2.63;;
22786;SDS011;63134;52.020;4.714;2023-04-03T02:00:31;4.95;;;2.50;;
22786;SDS011;63134;52.020;4.714;2023-04-03T02:03:17;6.35;;;2.75;;
22786;SDS011;63134;52.020;4.714;2023-04-03T02:06:03;5.05;;;2.60;;
22786;SDS011;63134;52.020;4.714;2023-04-03T02:08:49;7.05;;;2.50;;
22786;SDS011;63134;52.020;4.714;2023-04-03T02:11:38;7.22;;;2.53;;
22786;SDS011;63134;52.020;4.714;2023-04-03T02:14:26;4.38;;;2.80;;
22786;SDS011;63134;52.020;4.714;2023-04-03T02:17:12;7.88;;;2.60;;
22786;SDS011;63134;52.020;4.714;2023-04-03T02:20:00;6.07;;;2.47;;
22786;SDS011;63134;52.020;4.714;2023-04-03T02:22:45;6.50;;;2.20;;
22786;SDS011;63134;52.020;4.714;2023-04-03T02:25:34;3.75;;;2.42;;
22786;SDS011;63134;52.020;4.714;2023-04-03T02:28:22;3.03;;;2.10;;
22786;SDS011;63134;52.020;4.714;2023-04-03T02:31:08;5.47;;;2.58;;
22786;SDS011;63134;52.020;4.714;2023-04-03T02:33:57;4.75;;;2.20;;
22786;SDS011;63134;52.020;4.714;2023-04-03T02:36:43;5.15;;;2.50;;
22786;SDS011;63134;52.020;4.714;2023-04-03T02:39:30;6.72;;;2.75;;
22786;SDS011;63134;52.020;4.714;2023-04-03T02:42:17;5.63;;;2.60;;
22786;SDS011;63134;52.020;4.714;2023-04-03T02:45:02;7.28;;;3.10;;
22786;SDS011;63134;52.020;4.714;2023-04-03T02:47:51;6.55;;;2.60;;
22786;SDS011;63134;52.020;4.714;2023-04-03T02:50:37;6.60;;;2.63;;
22786;SDS011;63134;52.020;4.714;2023-04-03T02:53:23;2.75;;;2.15;;
22786;SDS011;63134;52.020;4.714;2023-04-03T02:56:09;8.45;;;3.35;;
22786;SDS011;63134;52.020;4.714;2023-04-03T02:58:56;7.40;;;2.60;;
22786;SDS011;63134;52.020;4.714;2023-04-03T03:01:42;5.15;;;2.80;;
22786;SDS011;63134;52.020;4.714;2023-04-03T03:04:27;7.55;;;2.67;;
22786;SDS011;63134;52.020;4.714;2023-04-03T03:07:14;5.35;;;2.60;;
22786;SDS011;63134;52.020;4.714;2023-04-03T03:10:05;6.72;;;3.20;;
22786;SDS011;63134;52.020;4.714;2023-04-03T03:12:52;4.28;;;2.42;;
22786;SDS011;63134;52.020;4.714;2023-04-03T03:15:38;4.15;;;2.65;;
22786;SDS011;63134;52.020;4.714;2023-04-03T03:18:23;4.38;;;2.50;;
22786;SDS011;63134;52.020;4.714;2023-04-03T03:21:10;4.45;;;2.60;;
22786;SDS011;63134;52.020;4.714;2023-04-03T03:23:55;6.88;;;2.92;;
22786;SDS011;63134;52.020;4.714;2023-04-03T03:26:41;3.47;;;2.63;;
22786;SDS011;63134;52.020;4.714;2023-04-03T03:29:27;5.07;;;2.75;;
22786;SDS011;63134;52.020;4.714;2023-04-03T03:32:13;6.55;;;3.13;;
22786;SDS011;63134;52.020;4.714;2023-04-03T03:34:58;4.70;;;3.10;;
22786;SDS011;63134;52.020;4.714;2023-04-03T03:37:44;6.65;;;2.65;;
22786;SDS011;63134;52.020;4.714;2023-04-03T03:40:30;5.50;;;2.95;;
22786;SDS011;63134;52.020;4.714;2023-04-03T03:43:16;5.35;;;3.15;;
22786;SDS011;63134;52.020;4.714;2023-04-03T03:46:03;5.30;;;2.70;;
22786;SDS011;63134;52.020;4.714;2023-04-03T03:48:49;7.30;;;3.03;;
22786;SDS011;63134;52.020;4.714;2023-04-03T03:51:35;6.53;;;2.92;;
22786;SDS011;63134;52.020;4.714;2023-04-03T03:54:20;8.15;;;2.88;;
22786;SDS011;63134;52.020;4.714;2023-04-03T03:57:06;7.72;;;2.67;;
22786;SDS011;63134;52.020;4.714;2023-04-03T03:59:52;5.57;;;3.20;;
22786;SDS011;63134;52.020;4.714;2023-04-03T04:02:37;6.95;;;2.53;;
22786;SDS011;63134;52.020;4.714;2023-04-03T04:05:23;7.30;;;2.90;;
22786;SDS011;63134;52.020;4.714;2023-04-03T04:08:10;7.30;;;2.83;;
22786;SDS011;63134;52.020;4.714;2023-04-03T04:10:56;5.35;;;2.80;;
22786;SDS011;63134;52.020;4.714;2023-04-03T04:13:42;4.85;;;3.03;;
22786;SDS011;63134;52.020;4.714;2023-04-03T04:16:29;5.45;;;2.53;;
22786;SDS011;63134;52.020;4.714;2023-04-03T04:19:19;10.75;;;3.28;;
22786;SDS011;63134;52.020;4.714;2023-04-03T04:22:04;8.73;;;2.67;;
22786;SDS011;63134;52.020;4.714;2023-04-03T04:24:50;12.55;;;3.60;;
22786;SDS011;63134;52.020;4.714;2023-04-03T04:27:36;6.65;;;3.10;;
22786;SDS011;63134;52.020;4.714;2023-04-03T04:30:22;8.23;;;3.08;;
22786;SDS011;63134;52.020;4.714;2023-04-03T04:33:12;7.07;;;3.10;;
22786;SDS011;63134;52.020;4.714;2023-04-03T04:36:00;8.73;;;3.38;;
22786;SDS011;63134;52.020;4.714;2023-04-03T04:38:48;9.88;;;3.25;;
22786;SDS011;63134;52.020;4.714;2023-04-03T04:41:39;10.52;;;3.78;;
22786;SDS011;63134;52.020;4.714;2023-04-03T04:44:25;6.60;;;3.33;;
22786;SDS011;63134;52.020;4.714;2023-04-03T04:47:11;7.53;;;3.40;;
22786;SDS011;63134;52.020;4.714;2023-04-03T04:49:58;8.57;;;3.60;;
22786;SDS011;63134;52.020;4.714;2023-04-03T04:52:44;8.45;;;3.40;;
22786;SDS011;63134;52.020;4.714;2023-04-03T04:55:30;11.13;;;3.30;;
22786;SDS011;63134;52.020;4.714;2023-04-03T04:58:15;8.55;;;3.28;;
22786;SDS011;63134;52.020;4.714;2023-04-03T05:01:05;7.65;;;3.55;;
22786;SDS011;63134;52.020;4.714;2023-04-03T05:03:56;5.63;;;3.33;;
22786;SDS011;63134;52.020;4.714;2023-04-03T05:06:46;7.07;;;3.45;;
22786;SDS011;63134;52.020;4.714;2023-04-03T05:09:35;11.23;;;3.60;;
22786;SDS011;63134;52.020;4.714;2023-04-03T05:12:21;7.00;;;3.22;;
22786;SDS011;63134;52.020;4.714;2023-04-03T05:15:12;12.38;;;3.38;;
22786;SDS011;63134;52.020;4.714;2023-04-03T05:17:58;8.75;;;3.95;;
22786;SDS011;63134;52.020;4.714;2023-04-03T05:20:44;8.60;;;3.60;;
22786;SDS011;63134;52.020;4.714;2023-04-03T05:23:33;6.80;;;3.70;;
22786;SDS011;63134;52.020;4.714;2023-04-03T05:26:19;8.60;;;3.58;;
22786;SDS011;63134;52.020;4.714;2023-04-03T05:29:07;11.35;;;4.30;;
22786;SDS011;63134;52.020;4.714;2023-04-03T05:31:53;10.52;;;3.47;;
22786;SDS011;63134;52.020;4.714;2023-04-03T05:34:39;12.52;;;3.70;;
22786;SDS011;63134;52.020;4.714;2023-04-03T05:37:25;7.13;;;3.05;;
22786;SDS011;63134;52.020;4.714;2023-04-03T05:40:11;7.50;;;3.47;;
22786;SDS011;63134;52.020;4.714;2023-04-03T05:43:00;12.68;;;3.45;;
22786;SDS011;63134;52.020;4.714;2023-04-03T05:45:50;9.38;;;3.60;;
22786;SDS011;63134;52.020;4.714;2023-04-03T05:48:38;10.38;;;3.83;;
22786;SDS011;63134;52.020;4.714;2023-04-03T05:51:30;8.82;;;3.28;;
22786;SDS011;63134;52.020;4.714;2023-04-03T05:54:28;8.60;;;3.72;;
22786;SDS011;63134;52.020;4.714;2023-04-03T05:57:31;9.38;;;3.30;;
22786;SDS011;63134;52.020;4.714;2023-04-03T06:00:17;13.40;;;4.05;;
22786;SDS011;63134;52.020;4.714;2023-04-03T06:03:12;9.98;;;3.70;;
22786;SDS011;63134;52.020;4.714;2023-04-03T06:05:58;7.72;;;3.53;;
22786;SDS011;63134;52.020;4.714;2023-04-03T06:08:44;12.45;;;3.83;;
22786;SDS011;63134;52.020;4.714;2023-04-03T06:11:29;7.03;;;3.33;;
22786;SDS011;63134;52.020;4.714;2023-04-03T06:14:14;5.72;;;3.13;;
22786;SDS011;63134;52.020;4.714;2023-04-03T06:17:02;17.42;;;3.63;;
22786;SDS011;63134;52.020;4.714;2023-04-03T06:19:49;8.63;;;3.50;;
22786;SDS011;63134;52.020;4.714;2023-04-03T06:22:38;11.38;;;3.80;;
22786;SDS011;63134;52.020;4.714;2023-04-03T06:25:25;8.48;;;3.33;;
22786;SDS011;63134;52.020;4.714;2023-04-03T06:28:11;11.27;;;3.47;;
22786;SDS011;63134;52.020;4.714;2023-04-03T06:30:57;12.23;;;3.45;;
22786;SDS011;63134;52.020;4.714;2023-04-03T06:33:49;7.80;;;3.78;;
22786;SDS011;63134;52.020;4.714;2023-04-03T06:36:35;9.98;;;3.10;;
22786;SDS011;63134;52.020;4.714;2023-04-03T06:39:21;16.80;;;3.78;;
22786;SDS011;63134;52.020;4.714;2023-04-03T06:42:07;9.02;;;3.17;;
22786;SDS011;63134;52.020;4.714;2023-04-03T06:44:57;7.78;;;3.13;;
22786;SDS011;63134;52.020;4.714;2023-04-03T06:47:43;8.70;;;3.22;;
22786;SDS011;63134;52.020;4.714;2023-04-03T06:50:30;9.68;;;3.03;;
22786;SDS011;63134;52.020;4.714;2023-04-03T06:53:15;8.23;;;3.42;;
22786;SDS011;63134;52.020;4.714;2023-04-03T06:56:02;11.05;;;3.50;;
22786;SDS011;63134;52.020;4.714;2023-04-03T06:58:47;5.20;;;2.63;;
22786;SDS011;63134;52.020;4.714;2023-04-03T07:01:33;8.98;;;2.97;;
22786;SDS011;63134;52.020;4.714;2023-04-03T07:04:19;9.00;;;3.03;;
22786;SDS011;63134;52.020;4.714;2023-04-03T07:07:07;6.72;;;3.03;;
22786;SDS011;63134;52.020;4.714;2023-04-03T07:09:53;11.80;;;3.00;;
22786;SDS011;63134;52.020;4.714;2023-04-03T07:12:38;10.40;;;3.33;;
22786;SDS011;63134;52.020;4.714;2023-04-03T07:15:24;10.18;;;2.92;;
22786;SDS011;63134;52.020;4.714;2023-04-03T07:18:09;8.82;;;2.88;;
22786;SDS011;63134;52.020;4.714;2023-04-03T07:20:55;6.95;;;3.05;;
22786;SDS011;63134;52.020;4.714;2023-04-03T07:23:40;8.65;;;3.33;;
22786;SDS011;63134;52.020;4.714;2023-04-03T07:26:26;7.93;;;3.15;;
22786;SDS011;63134;52.020;4.714;2023-04-03T07:29:11;5.45;;;2.83;;
22786;SDS011;63134;52.020;4.714;2023-04-03T07:31:57;7.53;;;3.67;;
22786;SDS011;63134;52.020;4.714;2023-04-03T07:34:43;8.48;;;3.03;;
22786;SDS011;63134;52.020;4.714;2023-04-03T07:37:28;7.85;;;3.00;;
22786;SDS011;63134;52.020;4.714;2023-04-03T07:40:14;7.78;;;2.97;;
22786;SDS011;63134;52.020;4.714;2023-04-03T07:43:02;5.22;;;2.92;;
22786;SDS011;63134;52.020;4.714;2023-04-03T07:45:50;7.90;;;2.85;;
22786;SDS011;63134;52.020;4.714;2023-04-03T07:48:36;6.97;;;3.22;;
22786;SDS011;63134;52.020;4.714;2023-04-03T07:51:22;16.83;;;3.65;;
22786;SDS011;63134;52.020;4.714;2023-04-03T07:54:09;10.02;;;3.15;;
22786;SDS011;63134;52.020;4.714;2023-04-03T07:56:55;13.43;;;2.92;;
22786;SDS011;63134;52.020;4.714;2023-04-03T07:59:41;8.82;;;2.50;;
22786;SDS011;63134;52.020;4.714;2023-04-03T08:02:27;9.27;;;2.65;;
22786;SDS011;63134;52.020;4.714;2023-04-03T08:05:13;3.80;;;2.42;;
22786;SDS011;63134;52.020;4.714;2023-04-03T08:07:58;8.40;;;3.30;;
22786;SDS011;63134;52.020;4.714;2023-04-03T08:10:50;9.10;;;3.08;;
22786;SDS011;63134;52.020;4.714;2023-04-03T08:13:37;6.70;;;3.28;;
22786;SDS011;63134;52.020;4.714;2023-04-03T08:16:23;8.50;;;3.00;;
22786;SDS011;63134;52.020;4.714;2023-04-03T08:19:13;5.93;;;3.30;;
22786;SDS011;63134;52.020;4.714;2023-04-03T08:22:19;10.45;;;3.20;;
22786;SDS011;63134;52.020;4.714;2023-04-03T08:25:04;7.63;;;2.97;;
22786;SDS011;63134;52.020;4.714;2023-04-03T08:27:50;8.77;;;2.90;;
22786;SDS011;63134;52.020;4.714;2023-04-03T08:30:40;7.70;;;2.53;;
22786;SDS011;63134;52.020;4.714;2023-04-03T08:33:27;8.63;;;3.70;;
22786;SDS011;63134;52.020;4.714;2023-04-03T08:36:17;8.48;;;2.55;;
22786;SDS011;63134;52.020;4.714;2023-04-03T08:41:55;8.13;;;2.65;;
22786;SDS011;63134;52.020;4.714;2023-04-03T08:47:38;7.57;;;2.13;;
22786;SDS011;63134;52.020;4.714;2023-04-03T08:50:33;4.03;;;2.13;;
22786;SDS011;63134;52.020;4.714;2023-04-03T08:53:28;4.68;;;2.50;;
22786;SDS011;63134;52.020;4.714;2023-04-03T08:56:20;4.80;;;2.20;;
22786;SDS011;63134;52.020;4.714;2023-04-03T08:59:18;8.05;;;2.20;;
22786;SDS011;63134;52.020;4.714;2023-04-03T09:02:18;6.80;;;2.00;;
22786;SDS011;63134;52.020;4.714;2023-04-03T09:05:13;4.97;;;1.90;;
22786;SDS011;63134;52.020;4.714;2023-04-03T09:20:39;4.70;;;1.60;;
22786;SDS011;63134;52.020;4.714;2023-04-03T09:23:47;3.50;;;1.52;;
22786;SDS011;63134;52.020;4.714;2023-04-03T09:26:39;5.65;;;2.35;;
22786;SDS011;63134;52.020;4.714;2023-04-03T09:29:44;4.63;;;1.45;;
22786;SDS011;63134;52.020;4.714;2023-04-03T09:32:32;3.22;;;1.58;;
22786;SDS011;63134;52.020;4.714;2023-04-03T09:35:21;2.63;;;1.25;;
22786;SDS011;63134;52.020;4.714;2023-04-03T09:38:31;2.88;;;1.33;;
22786;SDS011;63134;52.020;4.714;2023-04-03T09:41:18;5.75;;;1.67;;
22786;SDS011;63134;52.020;4.714;2023-04-03T09:44:17;4.90;;;1.73;;
22786;SDS011;63134;52.020;4.714;2023-04-03T09:50:19;1.80;;;1.30;;
22786;SDS011;63134;52.020;4.714;2023-04-03T09:53:07;4.15;;;1.45;;
22786;SDS011;63134;52.020;4.714;2023-04-03T10:02:03;2.72;;;1.45;;
22786;SDS011;63134;52.020;4.714;2023-04-03T10:05:33;3.25;;;1.65;;
22786;SDS011;63134;52.020;4.714;2023-04-03T10:11:08;2.80;;;1.70;;
22786;SDS011;63134;52.020;4.714;2023-04-03T10:13:56;3.63;;;1.92;;
22786;SDS011;63134;52.020;4.714;2023-04-03T10:16:47;1.55;;;1.27;;
22786;SDS011;63134;52.020;4.714;2023-04-03T10:19:42;2.92;;;1.20;;
22786;SDS011;63134;52.020;4.714;2023-04-03T10:22:41;2.30;;;1.27;;
22786;SDS011;63134;52.020;4.714;2023-04-03T10:31:59;1.80;;;1.20;;
22786;SDS011;63134;52.020;4.714;2023-04-03T10:34:47;2.10;;;1.40;;
22786;SDS011;63134;52.020;4.714;2023-04-03T10:37:51;2.38;;;1.30;;
22786;SDS011;63134;52.020;4.714;2023-04-03T10:41:12;3.40;;;1.30;;
22786;SDS011;63134;52.020;4.714;2023-04-03T10:44:07;4.20;;;1.58;;
22786;SDS011;63134;52.020;4.714;2023-04-03T10:50:36;4.00;;;1.67;;
22786;SDS011;63134;52.020;4.714;2023-04-03T11:02:25;3.30;;;1.48;;
22786;SDS011;63134;52.020;4.714;2023-04-03T11:05:18;2.72;;;1.17;;
22786;SDS011;63134;52.020;4.714;2023-04-03T11:08:12;3.10;;;1.10;;
22786;SDS011;63134;52.020;4.714;2023-04-03T11:11:12;1.60;;;1.10;;
22786;SDS011;63134;52.020;4.714;2023-04-03T11:14:15;1.30;;;0.88;;
22786;SDS011;63134;52.020;4.714;2023-04-03T11:20:00;1.70;;;1.08;;
22786;SDS011;63134;52.020;4.714;2023-04-03T11:23:03;2.25;;;1.10;;
22786;SDS011;63134;52.020;4.714;2023-04-03T11:26:13;1.60;;;0.80;;
22786;SDS011;63134;52.020;4.714;2023-04-03T11:29:02;2.10;;;1.13;;
22786;SDS011;63134;52.020;4.714;2023-04-03T11:32:41;0.80;;;0.80;;
22786;SDS011;63134;52.020;4.714;2023-04-03T11:35:16;2.50;;;0.90;;
22786;SDS011;63134;52.020;4.714;2023-04-03T11:38:04;2.38;;;1.10;;
22786;SDS011;63134;52.020;4.714;2023-04-03T11:40:51;1.15;;;0.70;;
22786;SDS011;63134;52.020;4.714;2023-04-03T11:43:40;2.38;;;0.93;;
22786;SDS011;63134;52.020;4.714;2023-04-03T12:01:11;1.17;;;0.68;;
22786;SDS011;63134;52.020;4.714;2023-04-03T12:04:17;2.60;;;0.80;;
22786;SDS011;63134;52.020;4.714;2023-04-03T12:07:12;1.25;;;0.90;;
22786;SDS011;63134;52.020;4.714;2023-04-03T12:10:13;0.75;;;0.55;;
22786;SDS011;63134;52.020;4.714;2023-04-03T12:13:15;1.15;;;0.50;;
22786;SDS011;63134;52.020;4.714;2023-04-03T12:16:03;2.60;;;0.88;;
22786;SDS011;63134;52.020;4.714;2023-04-03T12:24:36;0.68;;;0.50;;
22786;SDS011;63134;52.020;4.714;2023-04-03T12:27:28;3.13;;;0.93;;
22786;SDS011;63134;52.020;4.714;2023-04-03T12:36:08;1.88;;;1.00;;
22786;SDS011;63134;52.020;4.714;2023-04-03T12:48:37;2.45;;;1.45;;
22786;SDS011;63134;52.020;4.714;2023-04-03T12:54:23;2.05;;;0.95;;
22786;SDS011;63134;52.020;4.714;2023-04-03T12:57:21;2.75;;;1.02;;
22786;SDS011;63134;52.020;4.714;2023-04-03T13:03:24;1.92;;;1.10;;
22786;SDS011;63134;52.020;4.714;2023-04-03T13:06:39;1.90;;;0.88;;
22786;SDS011;63134;52.020;4.714;2023-04-03T13:09:29;3.58;;;0.85;;
22786;SDS011;63134;52.020;4.714;2023-04-03T13:12:17;1.63;;;0.93;;
22786;SDS011;63134;52.020;4.714;2023-04-03T13:15:11;2.20;;;0.82;;
22786;SDS011;63134;52.020;4.714;2023-04-03T13:18:02;3.47;;;1.10;;
22786;SDS011;63134;52.020;4.714;2023-04-03T13:20:48;3.80;;;1.25;;
22786;SDS011;63134;52.020;4.714;2023-04-03T13:23:36;5.57;;;1.30;;
22786;SDS011;63134;52.020;4.714;2023-04-03T13:26:26;2.25;;;1.02;;
22786;SDS011;63134;52.020;4.714;2023-04-03T13:29:19;3.25;;;1.05;;
22786;SDS011;63134;52.020;4.714;2023-04-03T13:32:23;1.98;;;1.00;;
22786;SDS011;63134;52.020;4.714;2023-04-03T13:35:29;1.30;;;0.70;;
22786;SDS011;63134;52.020;4.714;2023-04-03T13:38:27;5.82;;;1.20;;
22786;SDS011;63134;52.020;4.714;2023-04-03T13:41:26;2.22;;;0.98;;
22786;SDS011;63134;52.020;4.714;2023-04-03T13:53:01;4.07;;;1.00;;
22786;SDS011;63134;52.020;4.714;2023-04-03T13:59:03;1.70;;;0.98;;
22786;SDS011;63134;52.020;4.714;2023-04-03T14:07:29;1.90;;;1.00;;
22786;SDS011;63134;52.020;4.714;2023-04-03T14:10:16;3.80;;;1.25;;
22786;SDS011;63134;52.020;4.714;2023-04-03T14:13:02;3.55;;;1.10;;
22786;SDS011;63134;52.020;4.714;2023-04-03T14:15:48;3.35;;;1.10;;
22786;SDS011;63134;52.020;4.714;2023-04-03T14:18:35;2.78;;;0.93;;
22786;SDS011;63134;52.020;4.714;2023-04-03T14:21:21;3.60;;;0.88;;
22786;SDS011;63134;52.020;4.714;2023-04-03T14:24:07;2.17;;;0.80;;
22786;SDS011;63134;52.020;4.714;2023-04-03T14:26:53;2.83;;;1.15;;
22786;SDS011;63134;52.020;4.714;2023-04-03T14:29:40;2.35;;;0.98;;
22786;SDS011;63134;52.020;4.714;2023-04-03T14:32:26;1.85;;;0.80;;
22786;SDS011;63134;52.020;4.714;2023-04-03T14:35:12;1.83;;;1.00;;
22786;SDS011;63134;52.020;4.714;2023-04-03T14:38:01;2.83;;;1.08;;
22786;SDS011;63134;52.020;4.714;2023-04-03T14:40:46;2.42;;;1.10;;
22786;SDS011;63134;52.020;4.714;2023-04-03T14:43:32;4.60;;;0.90;;
22786;SDS011;63134;52.020;4.714;2023-04-03T14:49:27;2.35;;;0.93;;
22786;SDS011;63134;52.020;4.714;2023-04-03T14:52:16;4.22;;;1.02;;
22786;SDS011;63134;52.020;4.714;2023-04-03T14:55:21;5.70;;;1.30;;
22786;SDS011;63134;52.020;4.714;2023-04-03T14:58:11;1.65;;;0.80;;
22786;SDS011;63134;52.020;4.714;2023-04-03T15:01:02;3.80;;;1.40;;
22786;SDS011;63134;52.020;4.714;2023-04-03T15:03:47;4.30;;;1.17;;
22786;SDS011;63134;52.020;4.714;2023-04-03T15:06:33;3.13;;;1.23;;
22786;SDS011;63134;52.020;4.714;2023-04-03T15:12:07;2.55;;;1.20;;
22786;SDS011;63134;52.020;4.714;2023-04-03T15:14:54;1.20;;;0.73;;
22786;SDS011;63134;52.020;4.714;2023-04-03T15:17:48;2.22;;;1.02;;
22786;SDS011;63134;52.020;4.714;2023-04-03T15:20:39;3.47;;;1.13;;
22786;SDS011;63134;52.020;4.714;2023-04-03T15:23:25;3.15;;;1.23;;
22786;SDS011;63134;52.020;4.714;2023-04-03T15:26:13;6.30;;;1.42;;
22786;SDS011;63134;52.020;4.714;2023-04-03T15:28:58;3.17;;;1.25;;
22786;SDS011;63134;52.020;4.714;2023-04-03T15:31:44;1.98;;;1.10;;
22786;SDS011;63134;52.020;4.714;2023-04-03T15:34:29;2.97;;;1.35;;
22786;SDS011;63134;52.020;4.714;2023-04-03T15:37:15;3.35;;;1.30;;
22786;SDS011;63134;52.020;4.714;2023-04-03T15:40:05;4.45;;;1.48;;
22786;SDS011;63134;52.020;4.714;2023-04-03T15:42:51;2.42;;;1.15;;
22786;SDS011;63134;52.020;4.714;2023-04-03T15:45:39;4.15;;;1.40;;
22786;SDS011;63134;52.020;4.714;2023-04-03T15:48:26;5.55;;;1.63;;
22786;SDS011;63134;52.020;4.714;2023-04-03T15:51:12;3.33;;;1.40;;
22786;SDS011;63134;52.020;4.714;2023-04-03T15:53:58;2.75;;;1.40;;
22786;SDS011;63134;52.020;4.714;2023-04-03T15:56:43;7.22;;;1.30;;
22786;SDS011;63134;52.020;4.714;2023-04-03T15:59:29;3.30;;;1.35;;
22786;SDS011;63134;52.020;4.714;2023-04-03T16:02:16;2.97;;;1.00;;
22786;SDS011;63134;52.020;4.714;2023-04-03T16:05:02;3.55;;;1.25;;
22786;SDS011;63134;52.020;4.714;2023-04-03T16:10:44;4.60;;;1.48;;
22786;SDS011;63134;52.020;4.714;2023-04-03T16:13:30;3.75;;;1.10;;
22786;SDS011;63134;52.020;4.714;2023-04-03T16:16:19;7.47;;;1.40;;
22786;SDS011;63134;52.020;4.714;2023-04-03T16:19:05;4.70;;;1.38;;
22786;SDS011;63134;52.020;4.714;2023-04-03T16:21:51;5.70;;;1.60;;
22786;SDS011;63134;52.020;4.714;2023-04-03T16:24:38;3.28;;;1.55;;
22786;SDS011;63134;52.020;4.714;2023-04-03T16:27:23;3.15;;;1.20;;
22786;SDS011;63134;52.020;4.714;2023-04-03T16:30:12;5.97;;;1.20;;
22786;SDS011;63134;52.020;4.714;2023-04-03T16:32:57;4.30;;;1.75;;
22786;SDS011;63134;52.020;4.714;2023-04-03T16:35:43;4.22;;;1.50;;
22786;SDS011;63134;52.020;4.714;2023-04-03T16:38:29;1.98;;;1.15;;
22786;SDS011;63134;52.020;4.714;2023-04-03T16:41:15;2.97;;;1.55;;
22786;SDS011;63134;52.020;4.714;2023-04-03T16:44:00;4.82;;;1.60;;
22786;SDS011;63134;52.020;4.714;2023-04-03T16:46:46;3.65;;;1.80;;
22786;SDS011;63134;52.020;4.714;2023-04-03T16:49:32;3.17;;;1.60;;
22786;SDS011;63134;52.020;4.714;2023-04-03T16:52:21;2.45;;;1.50;;
22786;SDS011;63134;52.020;4.714;2023-04-03T16:55:07;3.90;;;1.75;;
22786;SDS011;63134;52.020;4.714;2023-04-03T16:57:53;2.67;;;1.42;;
22786;SDS011;63134;52.020;4.714;2023-04-03T17:00:39;3.53;;;1.98;;
22786;SDS011;63134;52.020;4.714;2023-04-03T17:03:24;5.47;;;1.92;;
22786;SDS011;63134;52.020;4.714;2023-04-03T17:06:11;4.07;;;1.70;;
22786;SDS011;63134;52.020;4.714;2023-04-03T17:09:01;4.65;;;2.00;;
22786;SDS011;63134;52.020;4.714;2023-04-03T17:11:46;4.90;;;1.92;;
22786;SDS011;63134;52.020;4.714;2023-04-03T17:14:33;7.75;;;2.10;;
22786;SDS011;63134;52.020;4.714;2023-04-03T17:17:20;3.83;;;1.77;;
22786;SDS011;63134;52.020;4.714;2023-04-03T17:20:08;3.40;;;1.80;;
22786;SDS011;63134;52.020;4.714;2023-04-03T17:22:54;4.78;;;1.73;;
22786;SDS011;63134;52.020;4.714;2023-04-03T17:25:40;8.38;;;2.13;;
22786;SDS011;63134;52.020;4.714;2023-04-03T17:28:26;6.07;;;1.85;;
22786;SDS011;63134;52.020;4.714;2023-04-03T17:31:14;4.72;;;1.83;;
22786;SDS011;63134;52.020;4.714;2023-04-03T17:34:00;5.45;;;1.98;;
22786;SDS011;63134;52.020;4.714;2023-04-03T17:36:45;3.80;;;1.38;;
22786;SDS011;63134;52.020;4.714;2023-04-03T17:39:32;5.97;;;2.10;;
22786;SDS011;63134;52.020;4.714;2023-04-03T17:42:20;5.72;;;2.20;;
22786;SDS011;63134;52.020;4.714;2023-04-03T17:45:06;4.35;;;1.80;;
22786;SDS011;63134;52.020;4.714;2023-04-03T17:47:54;4.60;;;1.88;;
22786;SDS011;63134;52.020;4.714;2023-04-03T17:50:39;3.55;;;1.65;;
22786;SDS011;63134;52.020;4.714;2023-04-03T17:53:25;4.32;;;1.90;;
22786;SDS011;63134;52.020;4.714;2023-04-03T17:56:32;5.07;;;1.80;;
22786;SDS011;63134;52.020;4.714;2023-04-03T17:59:22;5.53;;;2.22;;
22786;SDS011;63134;52.020;4.714;2023-04-03T18:02:07;5.07;;;2.15;;
22786;SDS011;63134;52.020;4.714;2023-04-03T18:04:53;5.22;;;2.30;;
22786;SDS011;63134;52.020;4.714;2023-04-03T18:07:38;4.55;;;2.25;;
22786;SDS011;63134;52.020;4.714;2023-04-03T18:10:25;4.50;;;1.80;;
22786;SDS011;63134;52.020;4.714;2023-04-03T18:13:10;7.00;;;2.30;;
22786;SDS011;63134;52.020;4.714;2023-04-03T18:15:57;3.53;;;1.92;;
22786;SDS011;63134;52.020;4.714;2023-04-03T18:18:42;7.32;;;2.28;;
22786;SDS011;63134;52.020;4.714;2023-04-03T18:21:28;4.13;;;2.15;;
22786;SDS011;63134;52.020;4.714;2023-04-03T18:24:14;6.82;;;3.03;;
22786;SDS011;63134;52.020;4.714;2023-04-03T18:27:24;9.43;;;3.53;;
22786;SDS011;63134;52.020;4.714;2023-04-03T18:30:10;8.52;;;3.05;;
22786;SDS011;63134;52.020;4.714;2023-04-03T18:32:58;6.43;;;3.05;;
22786;SDS011;63134;52.020;4.714;2023-04-03T18:35:44;6.65;;;3.13;;
22786;SDS011;63134;52.020;4.714;2023-04-03T18:38:29;4.18;;;2.50;;
22786;SDS011;63134;52.020;4.714;2023-04-03T18:41:15;6.70;;;2.38;;
22786;SDS011;63134;52.020;4.714;2023-04-03T18:44:02;5.88;;;1.70;;
22786;SDS011;63134;52.020;4.714;2023-04-03T18:46:51;7.18;;;2.40;;
22786;SDS011;63134;52.020;4.714;2023-04-03T18:49:39;7.53;;;2.67;;
22786;SDS011;63134;52.020;4.714;2023-04-03T18:52:25;2.90;;;2.20;;
22786;SDS011;63134;52.020;4.714;2023-04-03T18:55:11;4.35;;;2.38;;
22786;SDS011;63134;52.020;4.714;2023-04-03T18:57:57;3.80;;;2.22;;
22786;SDS011;63134;52.020;4.714;2023-04-03T19:00:43;7.32;;;2.28;;